sensor_id;sensor_type;location;lat;lon;timestamp;P1;durP1;ratioP1;P2;durP2;ratioP2
70071;SDS011;57434;42.794;23.302;2023-07-31T00:00:15;6.50;;;3.85;;
70071;SDS011;57434;42.794;23.302;2023-07-31T00:01:17;6.43;;;3.33;;
70071;SDS011;57434;42.794;23.302;2023-07-31T00:02:19;5.50;;;3.17;;
70071;SDS011;57434;42.794;23.302;2023-07-31T00:03:21;5.97;;;2.75;;
70071;SDS011;57434;42.794;23.302;2023-07-31T00:04:23;5.63;;;3.10;;
70071;SDS011;57434;42.794;23.302;2023-07-31T00:05:24;6.00;;;3.17;;
70071;SDS011;57434;42.794;23.302;2023-07-31T00:06:26;6.55;;;3.35;;
70071;SDS011;57434;42.794;23.302;2023-07-31T00:07:28;6.30;;;2.90;;
70071;SDS011;57434;42.794;23.302;2023-07-31T00:08:30;6.05;;;3.20;;
70071;SDS011;57434;42.794;23.302;2023-07-31T00:09:32;5.50;;;2.90;;
70071;SDS011;57434;42.794;23.302;2023-07-31T00:10:34;7.88;;;3.50;;
70071;SDS011;57434;42.794;23.302;2023-07-31T00:11:36;6.40;;;2.90;;
70071;SDS011;57434;42.794;23.302;2023-07-31T00:12:38;6.73;;;3.30;;
70071;SDS011;57434;42.794;23.302;2023-07-31T00:13:40;7.28;;;3.40;;
70071;SDS011;57434;42.794;23.302;2023-07-31T00:14:42;5.93;;;3.17;;
70071;SDS011;57434;42.794;23.302;2023-07-31T00:15:44;6.40;;;3.28;;
70071;SDS011;57434;42.794;23.302;2023-07-31T00:16:46;10.00;;;3.80;;
70071;SDS011;57434;42.794;23.302;2023-07-31T00:17:51;6.60;;;3.22;;
70071;SDS011;57434;42.794;23.302;2023-07-31T00:18:53;7.65;;;3.60;;
70071;SDS011;57434;42.794;23.302;2023-07-31T00:19:54;5.90;;;3.45;;
70071;SDS011;57434;42.794;23.302;2023-07-31T00:20:56;6.70;;;3.40;;
70071;SDS011;57434;42.794;23.302;2023-07-31T00:21:58;8.95;;;3.60;;
70071;SDS011;57434;42.794;23.302;2023-07-31T00:23:00;5.57;;;3.47;;
70071;SDS011;57434;42.794;23.302;2023-07-31T00:24:02;5.97;;;3.08;;
70071;SDS011;57434;42.794;23.302;2023-07-31T00:25:04;6.82;;;3.70;;
70071;SDS011;57434;42.794;23.302;2023-07-31T00:26:05;6.18;;;3.40;;
70071;SDS011;57434;42.794;23.302;2023-07-31T00:27:07;6.07;;;3.65;;
70071;SDS011;57434;42.794;23.302;2023-07-31T00:28:09;6.43;;;3.55;;
70071;SDS011;57434;42.794;23.302;2023-07-31T00:29:11;7.00;;;3.72;;
70071;SDS011;57434;42.794;23.302;2023-07-31T00:30:13;6.07;;;3.60;;
70071;SDS011;57434;42.794;23.302;2023-07-31T00:31:15;7.53;;;3.60;;
70071;SDS011;57434;42.794;23.302;2023-07-31T00:32:16;6.80;;;3.85;;
70071;SDS011;57434;42.794;23.302;2023-07-31T00:33:18;6.83;;;4.03;;
70071;SDS011;57434;42.794;23.302;2023-07-31T00:34:20;6.68;;;3.67;;
70071;SDS011;57434;42.794;23.302;2023-07-31T00:35:22;9.52;;;3.55;;
70071;SDS011;57434;42.794;23.302;2023-07-31T00:36:24;7.45;;;4.32;;
70071;SDS011;57434;42.794;23.302;2023-07-31T00:37:25;6.65;;;3.90;;
70071;SDS011;57434;42.794;23.302;2023-07-31T00:38:27;6.68;;;3.67;;
70071;SDS011;57434;42.794;23.302;2023-07-31T00:39:29;7.68;;;3.88;;
70071;SDS011;57434;42.794;23.302;2023-07-31T00:40:35;6.38;;;3.75;;
70071;SDS011;57434;42.794;23.302;2023-07-31T00:41:38;6.45;;;3.35;;
70071;SDS011;57434;42.794;23.302;2023-07-31T00:42:40;7.40;;;3.65;;
70071;SDS011;57434;42.794;23.302;2023-07-31T00:43:41;6.80;;;3.90;;
70071;SDS011;57434;42.794;23.302;2023-07-31T00:44:43;6.38;;;3.13;;
70071;SDS011;57434;42.794;23.302;2023-07-31T00:45:45;8.38;;;3.65;;
70071;SDS011;57434;42.794;23.302;2023-07-31T00:46:47;6.45;;;3.42;;
70071;SDS011;57434;42.794;23.302;2023-07-31T00:47:48;6.47;;;3.53;;
70071;SDS011;57434;42.794;23.302;2023-07-31T00:48:51;6.93;;;3.30;;
70071;SDS011;57434;42.794;23.302;2023-07-31T00:49:52;6.40;;;3.70;;
70071;SDS011;57434;42.794;23.302;2023-07-31T00:50:54;7.72;;;4.10;;
70071;SDS011;57434;42.794;23.302;2023-07-31T00:51:55;7.00;;;3.70;;
70071;SDS011;57434;42.794;23.302;2023-07-31T00:52:57;7.97;;;4.15;;
70071;SDS011;57434;42.794;23.302;2023-07-31T00:53:59;8.13;;;4.40;;
70071;SDS011;57434;42.794;23.302;2023-07-31T00:55:01;9.60;;;4.13;;
70071;SDS011;57434;42.794;23.302;2023-07-31T00:56:04;8.60;;;4.38;;
70071;SDS011;57434;42.794;23.302;2023-07-31T00:57:05;7.03;;;3.97;;
70071;SDS011;57434;42.794;23.302;2023-07-31T00:58:07;7.55;;;4.10;;
70071;SDS011;57434;42.794;23.302;2023-07-31T00:59:09;6.95;;;4.55;;
70071;SDS011;57434;42.794;23.302;2023-07-31T01:00:11;8.35;;;3.53;;
70071;SDS011;57434;42.794;23.302;2023-07-31T01:01:13;7.32;;;4.03;;
70071;SDS011;57434;42.794;23.302;2023-07-31T01:02:15;7.22;;;4.25;;
70071;SDS011;57434;42.794;23.302;2023-07-31T01:03:17;7.45;;;4.15;;
70071;SDS011;57434;42.794;23.302;2023-07-31T01:04:19;8.77;;;4.00;;
70071;SDS011;57434;42.794;23.302;2023-07-31T01:05:25;8.05;;;3.90;;
70071;SDS011;57434;42.794;23.302;2023-07-31T01:07:44;6.68;;;4.25;;
70071;SDS011;57434;42.794;23.302;2023-07-31T01:09:02;6.88;;;4.13;;
70071;SDS011;57434;42.794;23.302;2023-07-31T01:11:33;6.80;;;3.83;;
70071;SDS011;57434;42.794;23.302;2023-07-31T01:12:40;6.50;;;3.58;;
70071;SDS011;57434;42.794;23.302;2023-07-31T01:13:44;7.72;;;4.03;;
70071;SDS011;57434;42.794;23.302;2023-07-31T01:15:03;8.25;;;4.63;;
70071;SDS011;57434;42.794;23.302;2023-07-31T01:16:09;8.60;;;4.03;;
70071;SDS011;57434;42.794;23.302;2023-07-31T01:17:11;7.13;;;3.97;;
70071;SDS011;57434;42.794;23.302;2023-07-31T01:18:13;6.75;;;3.70;;
70071;SDS011;57434;42.794;23.302;2023-07-31T01:19:15;6.97;;;3.92;;
70071;SDS011;57434;42.794;23.302;2023-07-31T01:20:23;7.47;;;4.45;;
70071;SDS011;57434;42.794;23.302;2023-07-31T01:24:35;7.68;;;4.63;;
70071;SDS011;57434;42.794;23.302;2023-07-31T01:25:52;7.53;;;3.92;;
70071;SDS011;57434;42.794;23.302;2023-07-31T01:27:08;8.02;;;4.28;;
70071;SDS011;57434;42.794;23.302;2023-07-31T01:28:13;8.33;;;4.37;;
70071;SDS011;57434;42.794;23.302;2023-07-31T01:31:24;7.40;;;4.20;;
70071;SDS011;57434;42.794;23.302;2023-07-31T01:32:28;8.38;;;4.15;;
70071;SDS011;57434;42.794;23.302;2023-07-31T01:33:30;7.70;;;4.38;;
70071;SDS011;57434;42.794;23.302;2023-07-31T01:34:32;8.13;;;4.28;;
70071;SDS011;57434;42.794;23.302;2023-07-31T01:35:37;10.25;;;4.32;;
70071;SDS011;57434;42.794;23.302;2023-07-31T01:36:39;8.85;;;4.32;;
70071;SDS011;57434;42.794;23.302;2023-07-31T01:37:41;8.50;;;4.47;;
70071;SDS011;57434;42.794;23.302;2023-07-31T01:38:43;9.48;;;4.32;;
70071;SDS011;57434;42.794;23.302;2023-07-31T01:39:45;8.40;;;4.40;;
70071;SDS011;57434;42.794;23.302;2023-07-31T01:40:50;8.82;;;4.03;;
70071;SDS011;57434;42.794;23.302;2023-07-31T01:41:52;8.40;;;4.30;;
70071;SDS011;57434;42.794;23.302;2023-07-31T01:42:54;8.60;;;4.55;;
70071;SDS011;57434;42.794;23.302;2023-07-31T01:43:56;7.50;;;4.22;;
70071;SDS011;57434;42.794;23.302;2023-07-31T01:44:58;6.95;;;4.28;;
70071;SDS011;57434;42.794;23.302;2023-07-31T01:45:59;8.23;;;4.65;;
70071;SDS011;57434;42.794;23.302;2023-07-31T01:47:01;8.45;;;4.60;;
70071;SDS011;57434;42.794;23.302;2023-07-31T01:48:03;7.18;;;4.22;;
70071;SDS011;57434;42.794;23.302;2023-07-31T01:49:05;8.93;;;4.50;;
70071;SDS011;57434;42.794;23.302;2023-07-31T01:50:07;7.60;;;4.40;;
70071;SDS011;57434;42.794;23.302;2023-07-31T01:51:09;9.27;;;4.85;;
70071;SDS011;57434;42.794;23.302;2023-07-31T01:52:10;8.95;;;4.68;;
70071;SDS011;57434;42.794;23.302;2023-07-31T01:53:12;7.85;;;4.60;;
70071;SDS011;57434;42.794;23.302;2023-07-31T01:54:14;8.55;;;5.38;;
70071;SDS011;57434;42.794;23.302;2023-07-31T01:55:16;10.00;;;4.75;;
70071;SDS011;57434;42.794;23.302;2023-07-31T01:56:17;10.88;;;4.60;;
70071;SDS011;57434;42.794;23.302;2023-07-31T01:57:19;8.52;;;5.25;;
70071;SDS011;57434;42.794;23.302;2023-07-31T01:58:20;8.73;;;4.82;;
70071;SDS011;57434;42.794;23.302;2023-07-31T01:59:22;8.85;;;5.50;;
70071;SDS011;57434;42.794;23.302;2023-07-31T02:03:22;8.05;;;5.20;;
70071;SDS011;57434;42.794;23.302;2023-07-31T02:04:25;10.10;;;5.97;;
70071;SDS011;57434;42.794;23.302;2023-07-31T02:05:26;11.13;;;6.15;;
70071;SDS011;57434;42.794;23.302;2023-07-31T02:06:28;10.20;;;5.70;;
70071;SDS011;57434;42.794;23.302;2023-07-31T02:07:30;9.27;;;5.65;;
70071;SDS011;57434;42.794;23.302;2023-07-31T02:08:32;10.30;;;6.13;;
70071;SDS011;57434;42.794;23.302;2023-07-31T02:09:34;10.50;;;6.13;;
70071;SDS011;57434;42.794;23.302;2023-07-31T02:10:36;11.43;;;6.18;;
70071;SDS011;57434;42.794;23.302;2023-07-31T02:11:37;9.10;;;5.83;;
70071;SDS011;57434;42.794;23.302;2023-07-31T02:12:39;9.55;;;6.38;;
70071;SDS011;57434;42.794;23.302;2023-07-31T02:13:41;9.23;;;5.82;;
70071;SDS011;57434;42.794;23.302;2023-07-31T02:14:42;10.38;;;6.25;;
70071;SDS011;57434;42.794;23.302;2023-07-31T02:15:45;10.25;;;6.15;;
70071;SDS011;57434;42.794;23.302;2023-07-31T02:16:47;8.15;;;5.07;;
70071;SDS011;57434;42.794;23.302;2023-07-31T02:17:49;9.63;;;6.05;;
70071;SDS011;57434;42.794;23.302;2023-07-31T02:18:51;9.73;;;6.00;;
70071;SDS011;57434;42.794;23.302;2023-07-31T02:19:52;8.55;;;5.75;;
70071;SDS011;57434;42.794;23.302;2023-07-31T02:20:54;9.25;;;5.65;;
70071;SDS011;57434;42.794;23.302;2023-07-31T02:21:56;9.87;;;6.07;;
70071;SDS011;57434;42.794;23.302;2023-07-31T02:22:57;8.73;;;5.43;;
70071;SDS011;57434;42.794;23.302;2023-07-31T02:23:59;10.43;;;6.30;;
70071;SDS011;57434;42.794;23.302;2023-07-31T02:25:01;10.50;;;6.25;;
70071;SDS011;57434;42.794;23.302;2023-07-31T02:26:03;9.43;;;5.65;;
70071;SDS011;57434;42.794;23.302;2023-07-31T02:27:05;10.15;;;6.05;;
70071;SDS011;57434;42.794;23.302;2023-07-31T02:28:06;9.75;;;6.35;;
70071;SDS011;57434;42.794;23.302;2023-07-31T02:29:08;8.35;;;5.60;;
70071;SDS011;57434;42.794;23.302;2023-07-31T02:30:11;9.55;;;6.18;;
70071;SDS011;57434;42.794;23.302;2023-07-31T02:31:13;10.05;;;5.70;;
70071;SDS011;57434;42.794;23.302;2023-07-31T02:32:14;9.47;;;5.73;;
70071;SDS011;57434;42.794;23.302;2023-07-31T02:33:16;10.00;;;6.15;;
70071;SDS011;57434;42.794;23.302;2023-07-31T02:34:18;8.48;;;5.40;;
70071;SDS011;57434;42.794;23.302;2023-07-31T02:35:20;9.65;;;6.03;;
70071;SDS011;57434;42.794;23.302;2023-07-31T02:36:21;11.13;;;5.70;;
70071;SDS011;57434;42.794;23.302;2023-07-31T02:37:23;9.40;;;6.32;;
70071;SDS011;57434;42.794;23.302;2023-07-31T02:38:25;9.82;;;6.60;;
70071;SDS011;57434;42.794;23.302;2023-07-31T02:39:27;8.90;;;5.93;;
70071;SDS011;57434;42.794;23.302;2023-07-31T02:40:28;10.32;;;5.93;;
70071;SDS011;57434;42.794;23.302;2023-07-31T02:41:30;10.38;;;6.18;;
70071;SDS011;57434;42.794;23.302;2023-07-31T02:42:32;10.70;;;5.73;;
70071;SDS011;57434;42.794;23.302;2023-07-31T02:43:34;10.05;;;6.10;;
70071;SDS011;57434;42.794;23.302;2023-07-31T02:44:36;9.65;;;5.88;;
70071;SDS011;57434;42.794;23.302;2023-07-31T02:45:38;8.70;;;5.72;;
70071;SDS011;57434;42.794;23.302;2023-07-31T02:46:40;10.70;;;6.40;;
70071;SDS011;57434;42.794;23.302;2023-07-31T02:47:42;9.20;;;6.15;;
70071;SDS011;57434;42.794;23.302;2023-07-31T02:48:43;11.80;;;6.38;;
70071;SDS011;57434;42.794;23.302;2023-07-31T02:49:45;10.52;;;6.05;;
70071;SDS011;57434;42.794;23.302;2023-07-31T02:50:47;12.23;;;6.93;;
70071;SDS011;57434;42.794;23.302;2023-07-31T02:51:49;10.85;;;6.53;;
70071;SDS011;57434;42.794;23.302;2023-07-31T02:52:51;10.83;;;7.00;;
70071;SDS011;57434;42.794;23.302;2023-07-31T02:53:53;10.02;;;6.43;;
70071;SDS011;57434;42.794;23.302;2023-07-31T02:54:55;10.77;;;6.82;;
70071;SDS011;57434;42.794;23.302;2023-07-31T02:55:56;11.18;;;6.90;;
70071;SDS011;57434;42.794;23.302;2023-07-31T02:56:58;9.30;;;6.30;;
70071;SDS011;57434;42.794;23.302;2023-07-31T02:58:00;11.88;;;7.32;;
70071;SDS011;57434;42.794;23.302;2023-07-31T02:59:02;10.75;;;7.22;;
70071;SDS011;57434;42.794;23.302;2023-07-31T03:00:03;12.95;;;7.80;;
70071;SDS011;57434;42.794;23.302;2023-07-31T03:01:06;11.43;;;7.43;;
70071;SDS011;57434;42.794;23.302;2023-07-31T03:02:08;11.13;;;7.10;;
70071;SDS011;57434;42.794;23.302;2023-07-31T03:03:10;12.93;;;7.80;;
70071;SDS011;57434;42.794;23.302;2023-07-31T03:04:12;11.70;;;7.20;;
70071;SDS011;57434;42.794;23.302;2023-07-31T03:05:14;13.10;;;7.40;;
70071;SDS011;57434;42.794;23.302;2023-07-31T03:06:15;11.15;;;6.90;;
70071;SDS011;57434;42.794;23.302;2023-07-31T03:07:17;12.93;;;7.20;;
70071;SDS011;57434;42.794;23.302;2023-07-31T03:08:19;12.32;;;6.88;;
70071;SDS011;57434;42.794;23.302;2023-07-31T03:09:21;12.82;;;7.25;;
70071;SDS011;57434;42.794;23.302;2023-07-31T03:10:23;11.57;;;7.75;;
70071;SDS011;57434;42.794;23.302;2023-07-31T03:11:24;11.50;;;7.35;;
70071;SDS011;57434;42.794;23.302;2023-07-31T03:12:27;11.35;;;7.25;;
70071;SDS011;57434;42.794;23.302;2023-07-31T03:13:29;12.57;;;8.53;;
70071;SDS011;57434;42.794;23.302;2023-07-31T03:14:31;12.65;;;9.15;;
70071;SDS011;57434;42.794;23.302;2023-07-31T03:15:32;11.02;;;7.20;;
70071;SDS011;57434;42.794;23.302;2023-07-31T03:16:34;12.80;;;8.05;;
70071;SDS011;57434;42.794;23.302;2023-07-31T03:17:36;12.05;;;7.93;;
70071;SDS011;57434;42.794;23.302;2023-07-31T03:18:38;13.40;;;8.13;;
70071;SDS011;57434;42.794;23.302;2023-07-31T03:19:40;15.57;;;9.20;;
70071;SDS011;57434;42.794;23.302;2023-07-31T03:20:42;14.25;;;8.70;;
70071;SDS011;57434;42.794;23.302;2023-07-31T03:21:44;15.18;;;9.75;;
70071;SDS011;57434;42.794;23.302;2023-07-31T03:22:46;14.98;;;9.93;;
70071;SDS011;57434;42.794;23.302;2023-07-31T03:23:48;19.07;;;12.90;;
70071;SDS011;57434;42.794;23.302;2023-07-31T03:24:50;17.33;;;11.05;;
70071;SDS011;57434;42.794;23.302;2023-07-31T03:25:59;17.42;;;11.10;;
70071;SDS011;57434;42.794;23.302;2023-07-31T03:27:02;18.13;;;11.80;;
70071;SDS011;57434;42.794;23.302;2023-07-31T03:28:04;15.60;;;10.63;;
70071;SDS011;57434;42.794;23.302;2023-07-31T03:29:06;15.85;;;10.70;;
70071;SDS011;57434;42.794;23.302;2023-07-31T03:30:08;18.77;;;11.48;;
70071;SDS011;57434;42.794;23.302;2023-07-31T03:31:09;20.05;;;11.45;;
70071;SDS011;57434;42.794;23.302;2023-07-31T03:32:11;15.25;;;11.02;;
70071;SDS011;57434;42.794;23.302;2023-07-31T03:33:13;17.70;;;11.02;;
70071;SDS011;57434;42.794;23.302;2023-07-31T03:34:15;16.77;;;12.60;;
70071;SDS011;57434;42.794;23.302;2023-07-31T03:35:16;16.45;;;11.07;;
70071;SDS011;57434;42.794;23.302;2023-07-31T03:36:18;17.75;;;11.02;;
70071;SDS011;57434;42.794;23.302;2023-07-31T03:37:20;17.67;;;11.52;;
70071;SDS011;57434;42.794;23.302;2023-07-31T03:38:22;16.00;;;10.80;;
70071;SDS011;57434;42.794;23.302;2023-07-31T03:39:24;17.55;;;11.13;;
70071;SDS011;57434;42.794;23.302;2023-07-31T03:40:26;18.15;;;11.45;;
70071;SDS011;57434;42.794;23.302;2023-07-31T03:41:28;17.05;;;11.30;;
70071;SDS011;57434;42.794;23.302;2023-07-31T03:42:29;18.65;;;12.05;;
70071;SDS011;57434;42.794;23.302;2023-07-31T03:43:31;15.48;;;10.98;;
70071;SDS011;57434;42.794;23.302;2023-07-31T03:44:34;16.90;;;11.07;;
70071;SDS011;57434;42.794;23.302;2023-07-31T03:45:35;18.23;;;11.25;;
70071;SDS011;57434;42.794;23.302;2023-07-31T03:46:37;17.42;;;11.60;;
70071;SDS011;57434;42.794;23.302;2023-07-31T03:47:39;17.90;;;11.35;;
70071;SDS011;57434;42.794;23.302;2023-07-31T03:48:41;17.70;;;11.23;;
70071;SDS011;57434;42.794;23.302;2023-07-31T03:49:43;18.15;;;11.40;;
70071;SDS011;57434;42.794;23.302;2023-07-31T03:50:45;17.92;;;11.55;;
70071;SDS011;57434;42.794;23.302;2023-07-31T03:51:47;16.30;;;10.40;;
70071;SDS011;57434;42.794;23.302;2023-07-31T03:52:49;18.42;;;11.23;;
70071;SDS011;57434;42.794;23.302;2023-07-31T03:53:50;17.75;;;11.07;;
70071;SDS011;57434;42.794;23.302;2023-07-31T03:54:52;18.00;;;11.70;;
70071;SDS011;57434;42.794;23.302;2023-07-31T03:55:54;19.70;;;11.88;;
70071;SDS011;57434;42.794;23.302;2023-07-31T03:56:55;16.65;;;10.80;;
70071;SDS011;57434;42.794;23.302;2023-07-31T03:57:57;16.98;;;10.77;;
70071;SDS011;57434;42.794;23.302;2023-07-31T03:58:59;18.40;;;11.27;;
70071;SDS011;57434;42.794;23.302;2023-07-31T04:00:00;18.13;;;10.80;;
70071;SDS011;57434;42.794;23.302;2023-07-31T04:01:02;20.17;;;12.05;;
70071;SDS011;57434;42.794;23.302;2023-07-31T04:02:05;16.80;;;10.90;;
70071;SDS011;57434;42.794;23.302;2023-07-31T04:03:07;17.45;;;12.18;;
70071;SDS011;57434;42.794;23.302;2023-07-31T04:04:09;22.00;;;14.30;;
70071;SDS011;57434;42.794;23.302;2023-07-31T04:05:10;20.73;;;13.23;;
70071;SDS011;57434;42.794;23.302;2023-07-31T04:06:12;28.50;;;19.90;;
70071;SDS011;57434;42.794;23.302;2023-07-31T04:07:14;21.63;;;13.73;;
70071;SDS011;57434;42.794;23.302;2023-07-31T04:08:15;24.27;;;14.68;;
70071;SDS011;57434;42.794;23.302;2023-07-31T04:09:17;27.67;;;15.10;;
70071;SDS011;57434;42.794;23.302;2023-07-31T04:10:19;36.38;;;22.88;;
70071;SDS011;57434;42.794;23.302;2023-07-31T04:11:21;24.85;;;14.80;;
70071;SDS011;57434;42.794;23.302;2023-07-31T04:12:23;20.80;;;13.40;;
70071;SDS011;57434;42.794;23.302;2023-07-31T04:13:24;19.90;;;13.77;;
70071;SDS011;57434;42.794;23.302;2023-07-31T04:14:26;22.65;;;13.50;;
70071;SDS011;57434;42.794;23.302;2023-07-31T04:15:28;22.13;;;14.10;;
70071;SDS011;57434;42.794;23.302;2023-07-31T04:16:30;22.90;;;13.82;;
70071;SDS011;57434;42.794;23.302;2023-07-31T04:17:32;23.35;;;15.18;;
70071;SDS011;57434;42.794;23.302;2023-07-31T04:18:33;23.83;;;16.02;;
70071;SDS011;57434;42.794;23.302;2023-07-31T04:19:35;25.95;;;16.05;;
70071;SDS011;57434;42.794;23.302;2023-07-31T04:20:37;34.15;;;19.15;;
70071;SDS011;57434;42.794;23.302;2023-07-31T04:21:38;28.60;;;18.50;;
70071;SDS011;57434;42.794;23.302;2023-07-31T04:22:40;30.80;;;18.92;;
70071;SDS011;57434;42.794;23.302;2023-07-31T04:23:42;27.67;;;17.08;;
70071;SDS011;57434;42.794;23.302;2023-07-31T04:24:44;37.38;;;19.90;;
70071;SDS011;57434;42.794;23.302;2023-07-31T04:25:45;30.60;;;18.40;;
70071;SDS011;57434;42.794;23.302;2023-07-31T04:26:47;40.00;;;20.25;;
70071;SDS011;57434;42.794;23.302;2023-07-31T04:27:49;40.42;;;20.65;;
70071;SDS011;57434;42.794;23.302;2023-07-31T04:28:50;26.73;;;16.17;;
70071;SDS011;57434;42.794;23.302;2023-07-31T04:29:52;29.58;;;17.08;;
70071;SDS011;57434;42.794;23.302;2023-07-31T04:30:54;29.63;;;17.98;;
70071;SDS011;57434;42.794;23.302;2023-07-31T04:31:56;32.17;;;18.77;;
70071;SDS011;57434;42.794;23.302;2023-07-31T04:32:58;31.40;;;19.02;;
70071;SDS011;57434;42.794;23.302;2023-07-31T04:33:59;115.05;;;71.85;;
70071;SDS011;57434;42.794;23.302;2023-07-31T04:35:02;25.52;;;16.50;;
70071;SDS011;57434;42.794;23.302;2023-07-31T04:36:04;28.63;;;17.50;;
70071;SDS011;57434;42.794;23.302;2023-07-31T04:37:06;27.00;;;16.33;;
70071;SDS011;57434;42.794;23.302;2023-07-31T04:38:08;26.00;;;15.95;;
70071;SDS011;57434;42.794;23.302;2023-07-31T04:39:10;28.98;;;17.92;;
70071;SDS011;57434;42.794;23.302;2023-07-31T04:40:11;27.02;;;16.05;;
70071;SDS011;57434;42.794;23.302;2023-07-31T04:41:13;30.15;;;17.67;;
70071;SDS011;57434;42.794;23.302;2023-07-31T04:42:15;29.90;;;15.70;;
70071;SDS011;57434;42.794;23.302;2023-07-31T04:43:17;27.73;;;16.48;;
70071;SDS011;57434;42.794;23.302;2023-07-31T04:44:19;29.02;;;17.40;;
70071;SDS011;57434;42.794;23.302;2023-07-31T04:45:20;30.60;;;16.75;;
70071;SDS011;57434;42.794;23.302;2023-07-31T04:46:22;27.43;;;16.90;;
70071;SDS011;57434;42.794;23.302;2023-07-31T04:47:24;27.75;;;16.17;;
70071;SDS011;57434;42.794;23.302;2023-07-31T04:48:26;27.98;;;16.83;;
70071;SDS011;57434;42.794;23.302;2023-07-31T04:49:27;31.45;;;18.45;;
70071;SDS011;57434;42.794;23.302;2023-07-31T04:50:29;29.90;;;16.40;;
70071;SDS011;57434;42.794;23.302;2023-07-31T04:51:31;25.75;;;16.42;;
70071;SDS011;57434;42.794;23.302;2023-07-31T04:52:33;31.65;;;15.95;;
70071;SDS011;57434;42.794;23.302;2023-07-31T04:53:35;26.30;;;15.90;;
70071;SDS011;57434;42.794;23.302;2023-07-31T04:54:37;30.73;;;16.95;;
70071;SDS011;57434;42.794;23.302;2023-07-31T04:55:39;27.75;;;15.60;;
70071;SDS011;57434;42.794;23.302;2023-07-31T04:56:41;26.43;;;16.77;;
70071;SDS011;57434;42.794;23.302;2023-07-31T04:57:43;29.55;;;15.88;;
70071;SDS011;57434;42.794;23.302;2023-07-31T04:58:45;28.17;;;16.77;;
70071;SDS011;57434;42.794;23.302;2023-07-31T04:59:47;25.15;;;15.50;;
70071;SDS011;57434;42.794;23.302;2023-07-31T05:00:51;24.30;;;14.82;;
70071;SDS011;57434;42.794;23.302;2023-07-31T05:01:53;27.42;;;15.52;;
70071;SDS011;57434;42.794;23.302;2023-07-31T05:02:55;30.00;;;14.93;;
70071;SDS011;57434;42.794;23.302;2023-07-31T05:03:57;25.10;;;15.57;;
70071;SDS011;57434;42.794;23.302;2023-07-31T05:04:58;25.80;;;15.65;;
70071;SDS011;57434;42.794;23.302;2023-07-31T05:06:00;24.90;;;14.98;;
70071;SDS011;57434;42.794;23.302;2023-07-31T05:07:02;25.10;;;14.93;;
70071;SDS011;57434;42.794;23.302;2023-07-31T05:08:03;24.30;;;15.75;;
70071;SDS011;57434;42.794;23.302;2023-07-31T05:09:05;25.35;;;16.00;;
70071;SDS011;57434;42.794;23.302;2023-07-31T05:10:07;22.20;;;13.75;;
70071;SDS011;57434;42.794;23.302;2023-07-31T05:11:09;23.73;;;15.02;;
70071;SDS011;57434;42.794;23.302;2023-07-31T05:12:11;23.90;;;14.60;;
70071;SDS011;57434;42.794;23.302;2023-07-31T05:13:12;22.98;;;14.10;;
70071;SDS011;57434;42.794;23.302;2023-07-31T05:14:14;21.23;;;13.55;;
70071;SDS011;57434;42.794;23.302;2023-07-31T05:15:16;24.30;;;13.85;;
70071;SDS011;57434;42.794;23.302;2023-07-31T05:16:18;23.88;;;13.50;;
70071;SDS011;57434;42.794;23.302;2023-07-31T05:17:20;20.67;;;13.33;;
70071;SDS011;57434;42.794;23.302;2023-07-31T05:18:22;21.05;;;14.68;;
70071;SDS011;57434;42.794;23.302;2023-07-31T05:19:24;20.20;;;13.57;;
70071;SDS011;57434;42.794;23.302;2023-07-31T05:20:25;26.67;;;13.48;;
70071;SDS011;57434;42.794;23.302;2023-07-31T05:21:27;20.80;;;13.80;;
70071;SDS011;57434;42.794;23.302;2023-07-31T05:22:29;21.67;;;14.00;;
70071;SDS011;57434;42.794;23.302;2023-07-31T05:23:31;19.98;;;13.25;;
70071;SDS011;57434;42.794;23.302;2023-07-31T05:24:36;23.25;;;13.35;;
70071;SDS011;57434;42.794;23.302;2023-07-31T05:25:38;20.83;;;13.50;;
70071;SDS011;57434;42.794;23.302;2023-07-31T05:26:39;21.20;;;12.73;;
70071;SDS011;57434;42.794;23.302;2023-07-31T05:27:42;18.60;;;12.73;;
70071;SDS011;57434;42.794;23.302;2023-07-31T05:28:44;21.08;;;12.40;;
70071;SDS011;57434;42.794;23.302;2023-07-31T05:29:46;22.38;;;13.18;;
70071;SDS011;57434;42.794;23.302;2023-07-31T05:30:48;19.60;;;13.25;;
70071;SDS011;57434;42.794;23.302;2023-07-31T05:31:49;18.30;;;12.10;;
70071;SDS011;57434;42.794;23.302;2023-07-31T05:32:52;19.50;;;12.32;;
70071;SDS011;57434;42.794;23.302;2023-07-31T05:33:53;20.50;;;12.18;;
70071;SDS011;57434;42.794;23.302;2023-07-31T05:34:55;19.45;;;11.82;;
70071;SDS011;57434;42.794;23.302;2023-07-31T05:35:57;18.52;;;12.10;;
70071;SDS011;57434;42.794;23.302;2023-07-31T05:36:59;16.52;;;10.38;;
70071;SDS011;57434;42.794;23.302;2023-07-31T05:38:01;15.93;;;11.07;;
70071;SDS011;57434;42.794;23.302;2023-07-31T05:39:03;15.60;;;10.23;;
70071;SDS011;57434;42.794;23.302;2023-07-31T05:40:05;15.13;;;10.23;;
70071;SDS011;57434;42.794;23.302;2023-07-31T05:41:08;16.02;;;9.95;;
70071;SDS011;57434;42.794;23.302;2023-07-31T05:42:10;14.93;;;10.00;;
70071;SDS011;57434;42.794;23.302;2023-07-31T05:43:12;12.55;;;8.85;;
70071;SDS011;57434;42.794;23.302;2023-07-31T05:44:14;14.52;;;8.73;;
70071;SDS011;57434;42.794;23.302;2023-07-31T05:45:16;14.05;;;8.77;;
70071;SDS011;57434;42.794;23.302;2023-07-31T05:46:18;13.13;;;9.25;;
70071;SDS011;57434;42.794;23.302;2023-07-31T05:47:19;13.20;;;9.25;;
70071;SDS011;57434;42.794;23.302;2023-07-31T05:48:21;12.93;;;8.40;;
70071;SDS011;57434;42.794;23.302;2023-07-31T05:49:23;17.27;;;9.27;;
70071;SDS011;57434;42.794;23.302;2023-07-31T05:50:25;15.23;;;8.60;;
70071;SDS011;57434;42.794;23.302;2023-07-31T05:51:27;18.88;;;9.90;;
70071;SDS011;57434;42.794;23.302;2023-07-31T05:52:29;12.60;;;8.60;;
70071;SDS011;57434;42.794;23.302;2023-07-31T05:53:31;14.38;;;8.95;;
70071;SDS011;57434;42.794;23.302;2023-07-31T05:54:33;13.82;;;8.90;;
70071;SDS011;57434;42.794;23.302;2023-07-31T05:55:35;13.00;;;8.75;;
70071;SDS011;57434;42.794;23.302;2023-07-31T05:56:37;14.52;;;8.88;;
70071;SDS011;57434;42.794;23.302;2023-07-31T05:57:39;13.95;;;8.93;;
70071;SDS011;57434;42.794;23.302;2023-07-31T05:58:41;14.70;;;9.20;;
70071;SDS011;57434;42.794;23.302;2023-07-31T05:59:43;12.45;;;8.32;;
70071;SDS011;57434;42.794;23.302;2023-07-31T06:00:45;13.73;;;8.88;;
70071;SDS011;57434;42.794;23.302;2023-07-31T06:01:47;14.65;;;8.63;;
70071;SDS011;57434;42.794;23.302;2023-07-31T06:02:49;16.30;;;8.77;;
70071;SDS011;57434;42.794;23.302;2023-07-31T06:03:51;13.82;;;8.27;;
70071;SDS011;57434;42.794;23.302;2023-07-31T06:04:53;14.02;;;8.27;;
70071;SDS011;57434;42.794;23.302;2023-07-31T06:05:55;13.75;;;8.18;;
70071;SDS011;57434;42.794;23.302;2023-07-31T06:06:57;13.25;;;8.40;;
70071;SDS011;57434;42.794;23.302;2023-07-31T06:07:59;13.60;;;9.10;;
70071;SDS011;57434;42.794;23.302;2023-07-31T06:09:01;13.70;;;8.77;;
70071;SDS011;57434;42.794;23.302;2023-07-31T06:10:04;12.00;;;7.97;;
70071;SDS011;57434;42.794;23.302;2023-07-31T06:11:06;13.15;;;8.82;;
70071;SDS011;57434;42.794;23.302;2023-07-31T06:12:08;12.30;;;8.40;;
70071;SDS011;57434;42.794;23.302;2023-07-31T06:13:10;11.45;;;7.78;;
70071;SDS011;57434;42.794;23.302;2023-07-31T06:14:13;13.63;;;8.00;;